sensor_id;sensor_type;location;lat;lon;timestamp;P1;durP1;ratioP1;P2;durP2;ratioP2
19436;SDS011;9854;50.968;4.168;2024-03-22T00:01:00;55.03;;;39.63;;
19436;SDS011;9854;50.968;4.168;2024-03-22T00:03:25;59.33;;;40.15;;
19436;SDS011;9854;50.968;4.168;2024-03-22T00:05:51;55.70;;;39.65;;
19436;SDS011;9854;50.968;4.168;2024-03-22T00:08:17;56.92;;;37.58;;
19436;SDS011;9854;50.968;4.168;2024-03-22T00:10:45;56.38;;;37.65;;
19436;SDS011;9854;50.968;4.168;2024-03-22T00:13:10;50.80;;;37.03;;
19436;SDS011;9854;50.968;4.168;2024-03-22T00:15:36;55.92;;;38.78;;
19436;SDS011;9854;50.968;4.168;2024-03-22T00:18:02;54.25;;;36.00;;
19436;SDS011;9854;50.968;4.168;2024-03-22T00:20:30;51.92;;;36.33;;
19436;SDS011;9854;50.968;4.168;2024-03-22T00:22:56;49.28;;;36.60;;
19436;SDS011;9854;50.968;4.168;2024-03-22T00:25:21;54.95;;;36.83;;
19436;SDS011;9854;50.968;4.168;2024-03-22T00:27:47;54.72;;;37.08;;
19436;SDS011;9854;50.968;4.168;2024-03-22T00:30:12;50.75;;;34.85;;
19436;SDS011;9854;50.968;4.168;2024-03-22T00:32:39;49.38;;;36.53;;
19436;SDS011;9854;50.968;4.168;2024-03-22T00:35:05;50.10;;;36.00;;
19436;SDS011;9854;50.968;4.168;2024-03-22T00:37:30;55.65;;;36.60;;
19436;SDS011;9854;50.968;4.168;2024-03-22T00:39:56;54.25;;;36.45;;
19436;SDS011;9854;50.968;4.168;2024-03-22T00:42:22;49.67;;;37.05;;
19436;SDS011;9854;50.968;4.168;2024-03-22T00:44:47;52.28;;;36.05;;
19436;SDS011;9854;50.968;4.168;2024-03-22T00:47:13;49.03;;;37.10;;
19436;SDS011;9854;50.968;4.168;2024-03-22T00:49:38;54.40;;;36.25;;
19436;SDS011;9854;50.968;4.168;2024-03-22T00:52:04;53.53;;;37.25;;
19436;SDS011;9854;50.968;4.168;2024-03-22T00:54:30;52.60;;;36.38;;
19436;SDS011;9854;50.968;4.168;2024-03-22T00:56:55;51.60;;;37.17;;
19436;SDS011;9854;50.968;4.168;2024-03-22T00:59:21;53.00;;;37.25;;
19436;SDS011;9854;50.968;4.168;2024-03-22T01:01:49;55.33;;;38.03;;
19436;SDS011;9854;50.968;4.168;2024-03-22T01:04:14;59.55;;;38.50;;
19436;SDS011;9854;50.968;4.168;2024-03-22T01:06:40;53.45;;;38.53;;
19436;SDS011;9854;50.968;4.168;2024-03-22T01:09:06;59.80;;;39.53;;
19436;SDS011;9854;50.968;4.168;2024-03-22T01:11:32;54.83;;;38.33;;
19436;SDS011;9854;50.968;4.168;2024-03-22T01:14:00;55.35;;;38.22;;
19436;SDS011;9854;50.968;4.168;2024-03-22T01:16:26;51.35;;;37.78;;
19436;SDS011;9854;50.968;4.168;2024-03-22T01:18:54;57.38;;;39.03;;
19436;SDS011;9854;50.968;4.168;2024-03-22T01:21:19;59.50;;;39.65;;
19436;SDS011;9854;50.968;4.168;2024-03-22T01:23:50;56.85;;;37.47;;
19436;SDS011;9854;50.968;4.168;2024-03-22T01:26:18;55.80;;;36.88;;
19436;SDS011;9854;50.968;4.168;2024-03-22T01:28:44;56.63;;;37.10;;
19436;SDS011;9854;50.968;4.168;2024-03-22T01:31:10;49.10;;;35.22;;
19436;SDS011;9854;50.968;4.168;2024-03-22T01:33:35;53.80;;;34.80;;
19436;SDS011;9854;50.968;4.168;2024-03-22T01:36:03;51.05;;;35.38;;
19436;SDS011;9854;50.968;4.168;2024-03-22T01:38:30;47.95;;;34.78;;
19436;SDS011;9854;50.968;4.168;2024-03-22T01:40:56;50.13;;;35.78;;
19436;SDS011;9854;50.968;4.168;2024-03-22T01:43:22;49.90;;;34.53;;
19436;SDS011;9854;50.968;4.168;2024-03-22T01:45:47;50.97;;;35.13;;
19436;SDS011;9854;50.968;4.168;2024-03-22T01:48:13;57.53;;;36.83;;
19436;SDS011;9854;50.968;4.168;2024-03-22T01:50:39;61.90;;;38.83;;
19436;SDS011;9854;50.968;4.168;2024-03-22T01:53:05;55.15;;;37.08;;
19436;SDS011;9854;50.968;4.168;2024-03-22T01:55:31;54.90;;;37.33;;
19436;SDS011;9854;50.968;4.168;2024-03-22T01:57:57;58.40;;;37.78;;
19436;SDS011;9854;50.968;4.168;2024-03-22T02:00:23;52.78;;;35.97;;
19436;SDS011;9854;50.968;4.168;2024-03-22T02:02:49;51.97;;;35.85;;
19436;SDS011;9854;50.968;4.168;2024-03-22T02:05:15;56.10;;;35.78;;
19436;SDS011;9854;50.968;4.168;2024-03-22T02:07:45;50.08;;;35.08;;
19436;SDS011;9854;50.968;4.168;2024-03-22T02:10:11;54.58;;;36.05;;
19436;SDS011;9854;50.968;4.168;2024-03-22T02:12:40;50.28;;;33.85;;
19436;SDS011;9854;50.968;4.168;2024-03-22T02:15:08;55.08;;;34.05;;
19436;SDS011;9854;50.968;4.168;2024-03-22T02:17:34;47.97;;;34.22;;
19436;SDS011;9854;50.968;4.168;2024-03-22T02:20:00;52.35;;;33.30;;
19436;SDS011;9854;50.968;4.168;2024-03-22T02:22:29;47.97;;;32.22;;
19436;SDS011;9854;50.968;4.168;2024-03-22T02:24:55;41.50;;;30.10;;
19436;SDS011;9854;50.968;4.168;2024-03-22T02:27:21;46.42;;;29.75;;
19436;SDS011;9854;50.968;4.168;2024-03-22T02:29:49;51.50;;;30.85;;
19436;SDS011;9854;50.968;4.168;2024-03-22T02:32:17;44.15;;;28.88;;
19436;SDS011;9854;50.968;4.168;2024-03-22T02:34:43;40.67;;;27.90;;
19436;SDS011;9854;50.968;4.168;2024-03-22T02:37:08;41.90;;;28.60;;
19436;SDS011;9854;50.968;4.168;2024-03-22T02:39:36;43.10;;;27.48;;
19436;SDS011;9854;50.968;4.168;2024-03-22T02:42:02;39.90;;;27.83;;
19436;SDS011;9854;50.968;4.168;2024-03-22T02:44:30;48.83;;;30.05;;
19436;SDS011;9854;50.968;4.168;2024-03-22T02:46:55;40.53;;;28.83;;
19436;SDS011;9854;50.968;4.168;2024-03-22T02:49:24;42.65;;;28.67;;
19436;SDS011;9854;50.968;4.168;2024-03-22T02:51:52;44.45;;;29.98;;
19436;SDS011;9854;50.968;4.168;2024-03-22T02:54:18;45.78;;;30.65;;
19436;SDS011;9854;50.968;4.168;2024-03-22T02:56:46;46.35;;;29.58;;
19436;SDS011;9854;50.968;4.168;2024-03-22T02:59:11;42.17;;;29.70;;
19436;SDS011;9854;50.968;4.168;2024-03-22T03:01:37;44.42;;;29.42;;
19436;SDS011;9854;50.968;4.168;2024-03-22T03:04:03;48.20;;;29.52;;
19436;SDS011;9854;50.968;4.168;2024-03-22T03:06:31;36.33;;;26.60;;
19436;SDS011;9854;50.968;4.168;2024-03-22T03:08:56;39.50;;;25.52;;
19436;SDS011;9854;50.968;4.168;2024-03-22T03:11:22;35.38;;;25.70;;
19436;SDS011;9854;50.968;4.168;2024-03-22T03:13:48;36.35;;;25.50;;
19436;SDS011;9854;50.968;4.168;2024-03-22T03:16:13;32.53;;;23.27;;
19436;SDS011;9854;50.968;4.168;2024-03-22T03:18:39;42.75;;;23.98;;
19436;SDS011;9854;50.968;4.168;2024-03-22T03:21:07;37.88;;;23.67;;
19436;SDS011;9854;50.968;4.168;2024-03-22T03:23:33;32.78;;;22.17;;
19436;SDS011;9854;50.968;4.168;2024-03-22T03:26:03;35.75;;;22.95;;
19436;SDS011;9854;50.968;4.168;2024-03-22T03:28:31;32.97;;;22.00;;
19436;SDS011;9854;50.968;4.168;2024-03-22T03:30:56;31.65;;;21.48;;
19436;SDS011;9854;50.968;4.168;2024-03-22T03:33:22;31.27;;;20.92;;
19436;SDS011;9854;50.968;4.168;2024-03-22T03:35:50;29.85;;;19.92;;
19436;SDS011;9854;50.968;4.168;2024-03-22T03:38:15;26.92;;;19.58;;
19436;SDS011;9854;50.968;4.168;2024-03-22T03:40:41;26.55;;;19.67;;
19436;SDS011;9854;50.968;4.168;2024-03-22T03:43:09;29.60;;;20.67;;
19436;SDS011;9854;50.968;4.168;2024-03-22T03:45:37;30.75;;;20.33;;
19436;SDS011;9854;50.968;4.168;2024-03-22T03:48:03;32.40;;;20.88;;
19436;SDS011;9854;50.968;4.168;2024-03-22T03:50:31;32.28;;;21.85;;
19436;SDS011;9854;50.968;4.168;2024-03-22T03:52:57;34.22;;;22.90;;
19436;SDS011;9854;50.968;4.168;2024-03-22T03:55:23;33.97;;;23.02;;
19436;SDS011;9854;50.968;4.168;2024-03-22T03:57:52;36.92;;;23.77;;
19436;SDS011;9854;50.968;4.168;2024-03-22T04:00:21;35.38;;;23.33;;
19436;SDS011;9854;50.968;4.168;2024-03-22T04:02:51;37.13;;;23.02;;
19436;SDS011;9854;50.968;4.168;2024-03-22T04:05:16;34.58;;;23.38;;
19436;SDS011;9854;50.968;4.168;2024-03-22T04:07:42;38.63;;;24.65;;
19436;SDS011;9854;50.968;4.168;2024-03-22T04:10:11;37.72;;;23.30;;
19436;SDS011;9854;50.968;4.168;2024-03-22T04:12:37;37.22;;;24.15;;
19436;SDS011;9854;50.968;4.168;2024-03-22T04:15:03;32.47;;;21.67;;
19436;SDS011;9854;50.968;4.168;2024-03-22T04:17:28;38.25;;;22.10;;
19436;SDS011;9854;50.968;4.168;2024-03-22T04:19:57;33.92;;;21.42;;
19436;SDS011;9854;50.968;4.168;2024-03-22T04:22:25;30.80;;;22.23;;
19436;SDS011;9854;50.968;4.168;2024-03-22T04:24:50;31.27;;;21.92;;
19436;SDS011;9854;50.968;4.168;2024-03-22T04:27:18;30.95;;;20.35;;
19436;SDS011;9854;50.968;4.168;2024-03-22T04:29:47;28.85;;;20.45;;
19436;SDS011;9854;50.968;4.168;2024-03-22T04:32:12;27.15;;;19.25;;
19436;SDS011;9854;50.968;4.168;2024-03-22T04:34:41;28.65;;;20.58;;
19436;SDS011;9854;50.968;4.168;2024-03-22T04:37:07;28.08;;;20.27;;
19436;SDS011;9854;50.968;4.168;2024-03-22T04:39:34;28.45;;;20.30;;
19436;SDS011;9854;50.968;4.168;2024-03-22T04:42:01;29.15;;;20.35;;
19436;SDS011;9854;50.968;4.168;2024-03-22T04:44:27;26.90;;;19.88;;
19436;SDS011;9854;50.968;4.168;2024-03-22T04:46:54;31.50;;;20.88;;
19436;SDS011;9854;50.968;4.168;2024-03-22T04:49:20;29.92;;;21.00;;
19436;SDS011;9854;50.968;4.168;2024-03-22T04:51:48;26.90;;;18.92;;
19436;SDS011;9854;50.968;4.168;2024-03-22T04:54:16;26.38;;;18.63;;
19436;SDS011;9854;50.968;4.168;2024-03-22T04:56:44;26.90;;;20.25;;
19436;SDS011;9854;50.968;4.168;2024-03-22T04:59:10;28.95;;;20.55;;
19436;SDS011;9854;50.968;4.168;2024-03-22T05:01:35;28.33;;;18.73;;
19436;SDS011;9854;50.968;4.168;2024-03-22T05:04:03;25.85;;;19.35;;
19436;SDS011;9854;50.968;4.168;2024-03-22T05:06:29;22.55;;;17.42;;
19436;SDS011;9854;50.968;4.168;2024-03-22T05:08:55;23.20;;;18.35;;
19436;SDS011;9854;50.968;4.168;2024-03-22T05:11:22;25.13;;;18.23;;
19436;SDS011;9854;50.968;4.168;2024-03-22T05:13:49;24.50;;;18.48;;
19436;SDS011;9854;50.968;4.168;2024-03-22T05:16:14;20.27;;;16.90;;
19436;SDS011;9854;50.968;4.168;2024-03-22T05:18:42;20.65;;;16.65;;
19436;SDS011;9854;50.968;4.168;2024-03-22T05:21:08;22.85;;;16.85;;
19436;SDS011;9854;50.968;4.168;2024-03-22T05:23:34;23.85;;;16.65;;
19436;SDS011;9854;50.968;4.168;2024-03-22T05:25:59;21.83;;;16.75;;
19436;SDS011;9854;50.968;4.168;2024-03-22T05:28:25;20.80;;;16.77;;
19436;SDS011;9854;50.968;4.168;2024-03-22T05:30:51;22.55;;;17.73;;
19436;SDS011;9854;50.968;4.168;2024-03-22T05:33:17;20.83;;;16.95;;
19436;SDS011;9854;50.968;4.168;2024-03-22T05:35:42;25.98;;;17.25;;
19436;SDS011;9854;50.968;4.168;2024-03-22T05:38:08;18.67;;;16.58;;
19436;SDS011;9854;50.968;4.168;2024-03-22T05:40:36;20.08;;;16.25;;
19436;SDS011;9854;50.968;4.168;2024-03-22T05:43:03;18.88;;;15.70;;
19436;SDS011;9854;50.968;4.168;2024-03-22T05:45:29;22.15;;;16.25;;
19436;SDS011;9854;50.968;4.168;2024-03-22T05:47:57;20.77;;;15.88;;
19436;SDS011;9854;50.968;4.168;2024-03-22T05:50:23;20.17;;;15.27;;
19436;SDS011;9854;50.968;4.168;2024-03-22T05:52:51;21.88;;;16.55;;
19436;SDS011;9854;50.968;4.168;2024-03-22T05:55:17;20.20;;;15.07;;
19436;SDS011;9854;50.968;4.168;2024-03-22T05:57:44;21.55;;;15.55;;
19436;SDS011;9854;50.968;4.168;2024-03-22T06:00:10;19.38;;;15.95;;
19436;SDS011;9854;50.968;4.168;2024-03-22T06:02:38;21.40;;;15.50;;
19436;SDS011;9854;50.968;4.168;2024-03-22T06:05:04;24.88;;;16.98;;
19436;SDS011;9854;50.968;4.168;2024-03-22T06:07:32;19.23;;;15.38;;
19436;SDS011;9854;50.968;4.168;2024-03-22T06:10:05;19.52;;;15.07;;
19436;SDS011;9854;50.968;4.168;2024-03-22T06:12:31;22.20;;;16.58;;
19436;SDS011;9854;50.968;4.168;2024-03-22T06:14:59;18.48;;;15.60;;
19436;SDS011;9854;50.968;4.168;2024-03-22T06:17:25;20.05;;;15.60;;
19436;SDS011;9854;50.968;4.168;2024-03-22T06:19:50;20.88;;;16.23;;
19436;SDS011;9854;50.968;4.168;2024-03-22T06:22:18;18.42;;;15.93;;
19436;SDS011;9854;50.968;4.168;2024-03-22T06:24:44;20.23;;;14.50;;
19436;SDS011;9854;50.968;4.168;2024-03-22T06:27:10;19.52;;;15.05;;
19436;SDS011;9854;50.968;4.168;2024-03-22T06:29:39;17.15;;;14.70;;
19436;SDS011;9854;50.968;4.168;2024-03-22T06:32:07;17.27;;;14.00;;
19436;SDS011;9854;50.968;4.168;2024-03-22T06:34:33;18.70;;;14.18;;
19436;SDS011;9854;50.968;4.168;2024-03-22T06:36:58;18.65;;;14.20;;
19436;SDS011;9854;50.968;4.168;2024-03-22T06:39:24;14.30;;;12.30;;
19436;SDS011;9854;50.968;4.168;2024-03-22T06:41:49;13.65;;;12.05;;
19436;SDS011;9854;50.968;4.168;2024-03-22T06:44:17;15.85;;;12.30;;
19436;SDS011;9854;50.968;4.168;2024-03-22T06:46:43;11.23;;;10.02;;
19436;SDS011;9854;50.968;4.168;2024-03-22T06:49:08;9.75;;;8.90;;
19436;SDS011;9854;50.968;4.168;2024-03-22T06:51:34;10.20;;;7.63;;
19436;SDS011;9854;50.968;4.168;2024-03-22T06:54:02;15.30;;;8.82;;
19436;SDS011;9854;50.968;4.168;2024-03-22T06:56:27;9.93;;;8.38;;
19436;SDS011;9854;50.968;4.168;2024-03-22T06:58:53;11.15;;;8.30;;
19436;SDS011;9854;50.968;4.168;2024-03-22T07:01:21;8.48;;;7.68;;
19436;SDS011;9854;50.968;4.168;2024-03-22T07:03:47;9.70;;;8.70;;
19436;SDS011;9854;50.968;4.168;2024-03-22T07:06:13;11.00;;;8.68;;
19436;SDS011;9854;50.968;4.168;2024-03-22T07:08:39;9.57;;;8.35;;
19436;SDS011;9854;50.968;4.168;2024-03-22T07:11:05;9.43;;;8.57;;
19436;SDS011;9854;50.968;4.168;2024-03-22T07:13:34;11.63;;;8.77;;
19436;SDS011;9854;50.968;4.168;2024-03-22T07:16:00;9.38;;;8.00;;
19436;SDS011;9854;50.968;4.168;2024-03-22T07:18:26;12.52;;;8.68;;
19436;SDS011;9854;50.968;4.168;2024-03-22T07:20:52;11.00;;;9.23;;
19436;SDS011;9854;50.968;4.168;2024-03-22T07:23:17;10.82;;;9.70;;
19436;SDS011;9854;50.968;4.168;2024-03-22T07:25:45;12.40;;;9.68;;
19436;SDS011;9854;50.968;4.168;2024-03-22T07:28:13;11.55;;;9.70;;
19436;SDS011;9854;50.968;4.168;2024-03-22T07:30:39;10.77;;;9.77;;
19436;SDS011;9854;50.968;4.168;2024-03-22T07:33:07;11.95;;;10.70;;
19436;SDS011;9854;50.968;4.168;2024-03-22T07:35:34;15.00;;;10.52;;
19436;SDS011;9854;50.968;4.168;2024-03-22T07:38:00;13.02;;;10.80;;
19436;SDS011;9854;50.968;4.168;2024-03-22T07:40:25;12.48;;;10.02;;
19436;SDS011;9854;50.968;4.168;2024-03-22T07:42:51;12.45;;;9.82;;
19436;SDS011;9854;50.968;4.168;2024-03-22T07:45:19;13.13;;;10.30;;
19436;SDS011;9854;50.968;4.168;2024-03-22T07:47:44;11.52;;;10.32;;
19436;SDS011;9854;50.968;4.168;2024-03-22T07:50:13;12.93;;;10.38;;
19436;SDS011;9854;50.968;4.168;2024-03-22T07:52:39;12.65;;;10.65;;
19436;SDS011;9854;50.968;4.168;2024-03-22T07:55:04;13.50;;;10.73;;
19436;SDS011;9854;50.968;4.168;2024-03-22T07:57:32;17.90;;;10.77;;
19436;SDS011;9854;50.968;4.168;2024-03-22T07:59:58;11.60;;;9.95;;
19436;SDS011;9854;50.968;4.168;2024-03-22T08:02:23;11.63;;;10.45;;
19436;SDS011;9854;50.968;4.168;2024-03-22T08:04:49;13.85;;;11.23;;
19436;SDS011;9854;50.968;4.168;2024-03-22T08:07:15;13.63;;;11.18;;
19436;SDS011;9854;50.968;4.168;2024-03-22T08:09:41;11.95;;;10.52;;
19436;SDS011;9854;50.968;4.168;2024-03-22T08:12:09;11.95;;;10.70;;
19436;SDS011;9854;50.968;4.168;2024-03-22T08:14:35;14.20;;;11.13;;
19436;SDS011;9854;50.968;4.168;2024-03-22T08:17:01;11.43;;;10.32;;
19436;SDS011;9854;50.968;4.168;2024-03-22T08:19:30;11.75;;;10.60;;
19436;SDS011;9854;50.968;4.168;2024-03-22T08:21:58;12.07;;;10.23;;
19436;SDS011;9854;50.968;4.168;2024-03-22T08:24:26;14.60;;;10.57;;
19436;SDS011;9854;50.968;4.168;2024-03-22T08:26:54;14.75;;;10.45;;
19436;SDS011;9854;50.968;4.168;2024-03-22T08:29:20;12.98;;;11.25;;
19436;SDS011;9854;50.968;4.168;2024-03-22T08:31:46;16.92;;;10.68;;
19436;SDS011;9854;50.968;4.168;2024-03-22T08:34:14;15.70;;;11.13;;
19436;SDS011;9854;50.968;4.168;2024-03-22T08:36:40;17.13;;;11.63;;
19436;SDS011;9854;50.968;4.168;2024-03-22T08:39:05;12.35;;;11.13;;
19436;SDS011;9854;50.968;4.168;2024-03-22T08:41:35;14.07;;;11.10;;
19436;SDS011;9854;50.968;4.168;2024-03-22T08:44:04;14.20;;;11.82;;
19436;SDS011;9854;50.968;4.168;2024-03-22T08:46:30;16.25;;;11.60;;
19436;SDS011;9854;50.968;4.168;2024-03-22T08:48:59;16.40;;;12.13;;
19436;SDS011;9854;50.968;4.168;2024-03-22T08:51:27;14.18;;;12.05;;
19436;SDS011;9854;50.968;4.168;2024-03-22T08:53:54;15.32;;;11.20;;
19436;SDS011;9854;50.968;4.168;2024-03-22T08:56:20;15.65;;;11.32;;
19436;SDS011;9854;50.968;4.168;2024-03-22T08:58:45;12.07;;;10.60;;
19436;SDS011;9854;50.968;4.168;2024-03-22T09:01:11;15.35;;;11.35;;
19436;SDS011;9854;50.968;4.168;2024-03-22T09:03:37;15.82;;;11.82;;
19436;SDS011;9854;50.968;4.168;2024-03-22T09:06:05;17.23;;;11.40;;
19436;SDS011;9854;50.968;4.168;2024-03-22T09:08:31;17.80;;;12.13;;
19436;SDS011;9854;50.968;4.168;2024-03-22T09:10:58;18.77;;;12.35;;
19436;SDS011;9854;50.968;4.168;2024-03-22T09:13:24;19.58;;;13.10;;
19436;SDS011;9854;50.968;4.168;2024-03-22T09:15:55;17.30;;;12.27;;
19436;SDS011;9854;50.968;4.168;2024-03-22T09:18:26;16.63;;;12.02;;
19436;SDS011;9854;50.968;4.168;2024-03-22T09:20:53;15.80;;;11.98;;
19436;SDS011;9854;50.968;4.168;2024-03-22T09:23:22;23.00;;;12.27;;
19436;SDS011;9854;50.968;4.168;2024-03-22T09:25:48;19.67;;;12.18;;
19436;SDS011;9854;50.968;4.168;2024-03-22T09:28:14;18.27;;;11.95;;
19436;SDS011;9854;50.968;4.168;2024-03-22T09:30:40;17.42;;;11.82;;
19436;SDS011;9854;50.968;4.168;2024-03-22T09:33:06;14.85;;;10.57;;
19436;SDS011;9854;50.968;4.168;2024-03-22T09:35:35;18.52;;;11.88;;
19436;SDS011;9854;50.968;4.168;2024-03-22T09:38:01;15.60;;;11.68;;
19436;SDS011;9854;50.968;4.168;2024-03-22T09:40:27;17.95;;;11.98;;
19436;SDS011;9854;50.968;4.168;2024-03-22T09:42:57;21.58;;;11.63;;
19436;SDS011;9854;50.968;4.168;2024-03-22T09:45:29;20.23;;;11.32;;
19436;SDS011;9854;50.968;4.168;2024-03-22T09:47:57;12.40;;;10.68;;
19436;SDS011;9854;50.968;4.168;2024-03-22T09:50:23;18.02;;;11.05;;
19436;SDS011;9854;50.968;4.168;2024-03-22T09:52:50;17.20;;;11.15;;
19436;SDS011;9854;50.968;4.168;2024-03-22T09:55:19;16.75;;;10.88;;
19436;SDS011;9854;50.968;4.168;2024-03-22T09:57:48;15.25;;;10.82;;
19436;SDS011;9854;50.968;4.168;2024-03-22T10:00:15;14.90;;;11.32;;
19436;SDS011;9854;50.968;4.168;2024-03-22T10:02:48;17.30;;;10.70;;
19436;SDS011;9854;50.968;4.168;2024-03-22T10:05:17;14.52;;;11.30;;
19436;SDS011;9854;50.968;4.168;2024-03-22T10:07:45;20.67;;;11.00;;
19436;SDS011;9854;50.968;4.168;2024-03-22T10:10:10;14.98;;;10.50;;
19436;SDS011;9854;50.968;4.168;2024-03-22T10:12:37;16.90;;;10.23;;
19436;SDS011;9854;50.968;4.168;2024-03-22T10:15:04;13.45;;;9.70;;
19436;SDS011;9854;50.968;4.168;2024-03-22T10:17:33;21.85;;;10.32;;
19436;SDS011;9854;50.968;4.168;2024-03-22T10:19:59;15.45;;;10.07;;
19436;SDS011;9854;50.968;4.168;2024-03-22T10:22:25;16.80;;;10.98;;
19436;SDS011;9854;50.968;4.168;2024-03-22T10:24:51;22.25;;;10.10;;
19436;SDS011;9854;50.968;4.168;2024-03-22T10:27:17;13.60;;;9.77;;
19436;SDS011;9854;50.968;4.168;2024-03-22T10:29:43;13.00;;;9.65;;
19436;SDS011;9854;50.968;4.168;2024-03-22T10:32:09;11.00;;;8.70;;
19436;SDS011;9854;50.968;4.168;2024-03-22T10:34:35;15.45;;;9.73;;
19436;SDS011;9854;50.968;4.168;2024-03-22T10:37:01;15.50;;;8.63;;
19436;SDS011;9854;50.968;4.168;2024-03-22T10:39:31;13.98;;;9.07;;
19436;SDS011;9854;50.968;4.168;2024-03-22T10:41:57;15.20;;;9.43;;
19436;SDS011;9854;50.968;4.168;2024-03-22T10:44:22;16.70;;;9.30;;
19436;SDS011;9854;50.968;4.168;2024-03-22T10:46:50;11.77;;;8.80;;
19436;SDS011;9854;50.968;4.168;2024-03-22T10:49:19;16.05;;;9.35;;
19436;SDS011;9854;50.968;4.168;2024-03-22T10:51:49;20.13;;;9.65;;
19436;SDS011;9854;50.968;4.168;2024-03-22T10:54:19;18.45;;;9.02;;
19436;SDS011;9854;50.968;4.168;2024-03-22T10:56:47;18.63;;;9.10;;
19436;SDS011;9854;50.968;4.168;2024-03-22T10:59:23;13.88;;;9.07;;
19436;SDS011;9854;50.968;4.168;2024-03-22T11:01:51;16.55;;;8.75;;
19436;SDS011;9854;50.968;4.168;2024-03-22T11:04:17;21.83;;;10.45;;
19436;SDS011;9854;50.968;4.168;2024-03-22T11:06:50;13.93;;;8.65;;
19436;SDS011;9854;50.968;4.168;2024-03-22T11:09:22;13.70;;;7.97;;
19436;SDS011;9854;50.968;4.168;2024-03-22T11:11:53;12.95;;;7.55;;
19436;SDS011;9854;50.968;4.168;2024-03-22T11:14:23;10.55;;;8.00;;
19436;SDS011;9854;50.968;4.168;2024-03-22T11:16:49;12.80;;;8.02;;
19436;SDS011;9854;50.968;4.168;2024-03-22T11:19:15;12.57;;;8.27;;
19436;SDS011;9854;50.968;4.168;2024-03-22T11:21:41;16.70;;;8.25;;
19436;SDS011;9854;50.968;4.168;2024-03-22T11:24:07;12.63;;;8.02;;
19436;SDS011;9854;50.968;4.168;2024-03-22T11:26:33;11.38;;;7.88;;
19436;SDS011;9854;50.968;4.168;2024-03-22T11:28:59;17.05;;;7.88;;
19436;SDS011;9854;50.968;4.168;2024-03-22T11:31:25;19.85;;;8.10;;
19436;SDS011;9854;50.968;4.168;2024-03-22T11:33:53;17.52;;;8.38;;
19436;SDS011;9854;50.968;4.168;2024-03-22T11:36:19;21.33;;;8.60;;
19436;SDS011;9854;50.968;4.168;2024-03-22T11:38:45;15.40;;;8.45;;
19436;SDS011;9854;50.968;4.168;2024-03-22T11:41:14;18.60;;;8.45;;
19436;SDS011;9854;50.968;4.168;2024-03-22T11:43:43;15.68;;;8.35;;
19436;SDS011;9854;50.968;4.168;2024-03-22T11:46:11;17.90;;;8.20;;
19436;SDS011;9854;50.968;4.168;2024-03-22T11:48:40;14.85;;;8.32;;
19436;SDS011;9854;50.968;4.168;2024-03-22T11:51:09;17.83;;;8.60;;
19436;SDS011;9854;50.968;4.168;2024-03-22T11:53:35;12.13;;;8.43;;
19436;SDS011;9854;50.968;4.168;2024-03-22T11:56:03;16.10;;;8.23;;
19436;SDS011;9854;50.968;4.168;2024-03-22T11:58:31;17.35;;;8.13;;
19436;SDS011;9854;50.968;4.168;2024-03-22T12:01:00;19.48;;;8.85;;
19436;SDS011;9854;50.968;4.168;2024-03-22T12:03:26;16.35;;;8.43;;
19436;SDS011;9854;50.968;4.168;2024-03-22T12:05:55;18.30;;;8.60;;
19436;SDS011;9854;50.968;4.168;2024-03-22T12:08:23;13.45;;;8.35;;
19436;SDS011;9854;50.968;4.168;2024-03-22T12:10:48;12.82;;;8.50;;
19436;SDS011;9854;50.968;4.168;2024-03-22T12:13:16;16.52;;;9.02;;
19436;SDS011;9854;50.968;4.168;2024-03-22T12:15:41;15.10;;;8.38;;
19436;SDS011;9854;50.968;4.168;2024-03-22T12:18:07;15.27;;;8.45;;
19436;SDS011;9854;50.968;4.168;2024-03-22T12:20:33;16.70;;;8.80;;
19436;SDS011;9854;50.968;4.168;2024-03-22T12:22:59;13.82;;;8.02;;
19436;SDS011;9854;50.968;4.168;2024-03-22T12:25:24;15.35;;;8.65;;
19436;SDS011;9854;50.968;4.168;2024-03-22T12:27:50;17.98;;;9.02;;
19436;SDS011;9854;50.968;4.168;2024-03-22T12:30:18;16.85;;;8.52;;
19436;SDS011;9854;50.968;4.168;2024-03-22T12:32:43;18.50;;;8.13;;
19436;SDS011;9854;50.968;4.168;2024-03-22T12:35:09;19.17;;;9.10;;
19436;SDS011;9854;50.968;4.168;2024-03-22T12:37:34;16.48;;;8.10;;
19436;SDS011;9854;50.968;4.168;2024-03-22T12:40:03;24.17;;;8.25;;
19436;SDS011;9854;50.968;4.168;2024-03-22T12:42:33;12.20;;;7.38;;
19436;SDS011;9854;50.968;4.168;2024-03-22T12:45:01;15.15;;;8.10;;
19436;SDS011;9854;50.968;4.168;2024-03-22T12:47:28;18.70;;;7.95;;
19436;SDS011;9854;50.968;4.168;2024-03-22T12:49:55;12.90;;;7.28;;
19436;SDS011;9854;50.968;4.168;2024-03-22T12:52:21;11.82;;;6.93;;
19436;SDS011;9854;50.968;4.168;2024-03-22T12:54:47;15.32;;;7.90;;
19436;SDS011;9854;50.968;4.168;2024-03-22T12:57:12;18.00;;;7.70;;
19436;SDS011;9854;50.968;4.168;2024-03-22T12:59:40;18.75;;;8.30;;
19436;SDS011;9854;50.968;4.168;2024-03-22T13:02:06;18.75;;;7.93;;
19436;SDS011;9854;50.968;4.168;2024-03-22T13:04:33;18.52;;;7.72;;
19436;SDS011;9854;50.968;4.168;2024-03-22T13:07:01;11.40;;;7.53;;
19436;SDS011;9854;50.968;4.168;2024-03-22T13:09:26;13.88;;;7.55;;
19436;SDS011;9854;50.968;4.168;2024-03-22T13:11:52;18.90;;;7.88;;
19436;SDS011;9854;50.968;4.168;2024-03-22T13:14:18;20.67;;;8.23;;
19436;SDS011;9854;50.968;4.168;2024-03-22T13:16:46;14.82;;;8.18;;
19436;SDS011;9854;50.968;4.168;2024-03-22T13:19:11;17.60;;;8.13;;
19436;SDS011;9854;50.968;4.168;2024-03-22T13:21:38;16.85;;;8.32;;
19436;SDS011;9854;50.968;4.168;2024-03-22T13:24:04;24.23;;;9.57;;
19436;SDS011;9854;50.968;4.168;2024-03-22T13:26:30;17.50;;;9.77;;
19436;SDS011;9854;50.968;4.168;2024-03-22T13:28:56;19.92;;;10.07;;
19436;SDS011;9854;50.968;4.168;2024-03-22T13:31:22;19.75;;;10.50;;
19436;SDS011;9854;50.968;4.168;2024-03-22T13:33:47;14.52;;;9.98;;
19436;SDS011;9854;50.968;4.168;2024-03-22T13:36:15;27.48;;;11.13;;
19436;SDS011;9854;50.968;4.168;2024-03-22T13:38:41;23.83;;;12.18;;
19436;SDS011;9854;50.968;4.168;2024-03-22T13:41:06;20.23;;;11.52;;
19436;SDS011;9854;50.968;4.168;2024-03-22T13:43:34;23.23;;;12.48;;
19436;SDS011;9854;50.968;4.168;2024-03-22T13:46:02;21.00;;;11.90;;
19436;SDS011;9854;50.968;4.168;2024-03-22T13:48:28;21.40;;;12.95;;
19436;SDS011;9854;50.968;4.168;2024-03-22T13:50:55;19.15;;;12.07;;
19436;SDS011;9854;50.968;4.168;2024-03-22T13:53:24;17.17;;;12.73;;
19436;SDS011;9854;50.968;4.168;2024-03-22T13:55:49;19.25;;;11.82;;
19436;SDS011;9854;50.968;4.168;2024-03-22T13:58:17;16.55;;;11.82;;
19436;SDS011;9854;50.968;4.168;2024-03-22T14:00:46;19.70;;;13.60;;
19436;SDS011;9854;50.968;4.168;2024-03-22T14:03:12;24.95;;;15.82;;
19436;SDS011;9854;50.968;4.168;2024-03-22T14:05:38;17.08;;;13.48;;
19436;SDS011;9854;50.968;4.168;2024-03-22T14:08:06;19.38;;;15.15;;
19436;SDS011;9854;50.968;4.168;2024-03-22T14:10:34;17.17;;;12.00;;
19436;SDS011;9854;50.968;4.168;2024-03-22T14:13:00;17.95;;;13.32;;
19436;SDS011;9854;50.968;4.168;2024-03-22T14:15:26;16.65;;;12.95;;
19436;SDS011;9854;50.968;4.168;2024-03-22T14:17:56;17.92;;;13.75;;
19436;SDS011;9854;50.968;4.168;2024-03-22T14:20:24;22.45;;;13.50;;
19436;SDS011;9854;50.968;4.168;2024-03-22T14:22:50;14.25;;;12.80;;
19436;SDS011;9854;50.968;4.168;2024-03-22T14:25:16;17.77;;;13.10;;
19436;SDS011;9854;50.968;4.168;2024-03-22T14:27:42;18.45;;;13.25;;
19436;SDS011;9854;50.968;4.168;2024-03-22T14:30:11;21.10;;;15.10;;
19436;SDS011;9854;50.968;4.168;2024-03-22T14:32:38;24.58;;;14.68;;
19436;SDS011;9854;50.968;4.168;2024-03-22T14:35:07;15.43;;;12.85;;